sensor_id;sensor_type;location;lat;lon;timestamp;pressure;altitude;pressure_sealevel;temperature;humidity
35704;BME280;21820;51.112;13.762;2023-04-25T00:00:19;98566.63;;;22.31;49.43
35704;BME280;21820;51.112;13.762;2023-04-25T00:02:44;98569.22;;;22.39;49.75
35704;BME280;21820;51.112;13.762;2023-04-25T00:05:11;98558.19;;;22.52;50.03
35704;BME280;21820;51.112;13.762;2023-04-25T00:07:36;98561.78;;;22.51;50.11
35704;BME280;21820;51.112;13.762;2023-04-25T00:10:02;98546.75;;;22.45;50.14
35704;BME280;21820;51.112;13.762;2023-04-25T00:12:28;98555.91;;;22.57;50.03
35704;BME280;21820;51.112;13.762;2023-04-25T00:14:54;98560.78;;;22.60;50.05
35704;BME280;21820;51.112;13.762;2023-04-25T00:17:22;98555.19;;;22.63;50.43
35704;BME280;21820;51.112;13.762;2023-04-25T00:19:50;98557.81;;;22.63;50.60
35704;BME280;21820;51.112;13.762;2023-04-25T00:22:15;98558.00;;;22.61;50.33
35704;BME280;21820;51.112;13.762;2023-04-25T00:24:41;98563.09;;;22.55;48.36
35704;BME280;21820;51.112;13.762;2023-04-25T00:27:06;98559.72;;;22.30;46.95
35704;BME280;21820;51.112;13.762;2023-04-25T00:29:32;98555.53;;;22.21;47.09
35704;BME280;21820;51.112;13.762;2023-04-25T00:31:57;98560.72;;;22.29;46.43
35704;BME280;21820;51.112;13.762;2023-04-25T00:34:23;98554.22;;;22.17;46.60
35704;BME280;21820;51.112;13.762;2023-04-25T00:36:48;98553.03;;;22.28;46.12
35704;BME280;21820;51.112;13.762;2023-04-25T00:39:13;98555.13;;;22.40;46.02
35704;BME280;21820;51.112;13.762;2023-04-25T00:41:39;98552.53;;;22.32;46.25
35704;BME280;21820;51.112;13.762;2023-04-25T00:44:05;98552.66;;;22.39;46.95
35704;BME280;21820;51.112;13.762;2023-04-25T00:46:32;98557.13;;;22.30;48.65
35704;BME280;21820;51.112;13.762;2023-04-25T00:48:57;98553.97;;;22.35;49.12
35704;BME280;21820;51.112;13.762;2023-04-25T00:51:23;98546.59;;;22.38;49.49
35704;BME280;21820;51.112;13.762;2023-04-25T00:53:50;98552.63;;;22.47;50.30
35704;BME280;21820;51.112;13.762;2023-04-25T00:56:16;98551.31;;;22.51;50.17
35704;BME280;21820;51.112;13.762;2023-04-25T00:58:42;98541.16;;;22.48;50.46
35704;BME280;21820;51.112;13.762;2023-04-25T01:01:08;98545.41;;;22.57;50.36
35704;BME280;21820;51.112;13.762;2023-04-25T01:03:37;98542.44;;;22.60;50.53
35704;BME280;21820;51.112;13.762;2023-04-25T01:06:07;98541.47;;;22.61;50.69
35704;BME280;21820;51.112;13.762;2023-04-25T01:08:32;98540.47;;;22.62;50.60
35704;BME280;21820;51.112;13.762;2023-04-25T01:11:01;98544.72;;;22.63;50.60
35704;BME280;21820;51.112;13.762;2023-04-25T01:13:27;98548.03;;;22.49;48.41
35704;BME280;21820;51.112;13.762;2023-04-25T01:15:52;98549.47;;;22.21;47.22
35704;BME280;21820;51.112;13.762;2023-04-25T01:18:18;98555.00;;;22.26;46.75
35704;BME280;21820;51.112;13.762;2023-04-25T01:20:46;98540.25;;;22.25;46.19
35704;BME280;21820;51.112;13.762;2023-04-25T01:23:12;98545.19;;;22.20;46.58
35704;BME280;21820;51.112;13.762;2023-04-25T01:25:37;98550.75;;;22.25;46.12
35704;BME280;21820;51.112;13.762;2023-04-25T01:28:03;98547.16;;;22.26;46.45
35704;BME280;21820;51.112;13.762;2023-04-25T01:30:29;98548.63;;;22.20;46.39
35704;BME280;21820;51.112;13.762;2023-04-25T01:32:55;98552.69;;;22.31;47.88
35704;BME280;21820;51.112;13.762;2023-04-25T01:35:21;98552.03;;;22.29;48.96
35704;BME280;21820;51.112;13.762;2023-04-25T01:37:49;98553.00;;;22.36;49.92
35704;BME280;21820;51.112;13.762;2023-04-25T01:40:14;98553.97;;;22.43;49.82
35704;BME280;21820;51.112;13.762;2023-04-25T01:42:42;98549.00;;;22.48;50.33
35704;BME280;21820;51.112;13.762;2023-04-25T01:45:09;98552.94;;;22.52;49.74
35704;BME280;21820;51.112;13.762;2023-04-25T01:47:36;98545.75;;;22.54;49.91
35704;BME280;21820;51.112;13.762;2023-04-25T01:50:02;98548.69;;;22.59;50.04
35704;BME280;21820;51.112;13.762;2023-04-25T01:52:28;98527.91;;;22.49;49.85
35704;BME280;21820;51.112;13.762;2023-04-25T01:54:55;98546.72;;;22.61;50.42
35704;BME280;21820;51.112;13.762;2023-04-25T01:57:21;98534.59;;;22.60;49.98
35704;BME280;21820;51.112;13.762;2023-04-25T01:59:47;98541.31;;;22.62;50.29
35704;BME280;21820;51.112;13.762;2023-04-25T02:02:12;98539.16;;;22.19;46.94
35704;BME280;21820;51.112;13.762;2023-04-25T02:04:38;98541.25;;;22.24;47.19
35704;BME280;21820;51.112;13.762;2023-04-25T02:07:03;98523.63;;;22.18;46.65
35704;BME280;21820;51.112;13.762;2023-04-25T02:09:29;98536.69;;;22.26;46.75
35704;BME280;21820;51.112;13.762;2023-04-25T02:11:54;98539.81;;;22.21;46.45
35704;BME280;21820;51.112;13.762;2023-04-25T02:14:20;98532.44;;;22.17;46.08
35704;BME280;21820;51.112;13.762;2023-04-25T02:16:45;98521.97;;;22.17;46.12
35704;BME280;21820;51.112;13.762;2023-04-25T02:19:11;98541.09;;;22.25;47.54
35704;BME280;21820;51.112;13.762;2023-04-25T02:21:36;98548.78;;;22.27;48.75
35704;BME280;21820;51.112;13.762;2023-04-25T02:24:02;98541.88;;;22.34;49.93
35704;BME280;21820;51.112;13.762;2023-04-25T02:26:28;98536.13;;;22.38;49.61
35704;BME280;21820;51.112;13.762;2023-04-25T02:28:53;98536.25;;;22.45;49.40
35704;BME280;21820;51.112;13.762;2023-04-25T02:31:19;98542.81;;;22.49;49.91
35704;BME280;21820;51.112;13.762;2023-04-25T02:33:44;98523.69;;;22.40;50.61
35704;BME280;21820;51.112;13.762;2023-04-25T02:36:10;98534.47;;;22.53;49.99
35704;BME280;21820;51.112;13.762;2023-04-25T02:38:35;98536.91;;;22.55;50.41
35704;BME280;21820;51.112;13.762;2023-04-25T02:41:00;98533.31;;;22.56;50.29
35704;BME280;21820;51.112;13.762;2023-04-25T02:43:26;98537.56;;;22.57;50.41
35704;BME280;21820;51.112;13.762;2023-04-25T02:45:51;98539.81;;;22.60;50.97
35704;BME280;21820;51.112;13.762;2023-04-25T02:48:16;98538.22;;;22.59;50.45
35704;BME280;21820;51.112;13.762;2023-04-25T02:50:42;98538.16;;;22.20;47.33
35704;BME280;21820;51.112;13.762;2023-04-25T02:53:07;98540.84;;;22.04;46.88
35704;BME280;21820;51.112;13.762;2023-04-25T02:55:33;98535.72;;;22.19;46.61
35704;BME280;21820;51.112;13.762;2023-04-25T02:57:58;98513.81;;;22.12;46.91
35704;BME280;21820;51.112;13.762;2023-04-25T03:00:23;98530.63;;;22.25;46.23
35704;BME280;21820;51.112;13.762;2023-04-25T03:02:49;98537.69;;;22.17;45.94
35704;BME280;21820;51.112;13.762;2023-04-25T03:05:14;98539.47;;;22.24;46.07
35704;BME280;21820;51.112;13.762;2023-04-25T03:07:40;98540.88;;;22.35;47.15
35704;BME280;21820;51.112;13.762;2023-04-25T03:10:08;98533.25;;;22.25;49.33
35704;BME280;21820;51.112;13.762;2023-04-25T03:12:33;98529.78;;;22.33;49.99
35704;BME280;21820;51.112;13.762;2023-04-25T03:14:59;98532.84;;;22.36;49.92
35704;BME280;21820;51.112;13.762;2023-04-25T03:17:24;98533.16;;;22.41;50.20
35704;BME280;21820;51.112;13.762;2023-04-25T03:19:49;98532.69;;;22.46;50.38
35704;BME280;21820;51.112;13.762;2023-04-25T03:22:15;98527.91;;;22.49;49.98
35704;BME280;21820;51.112;13.762;2023-04-25T03:24:40;98529.22;;;22.53;50.46
35704;BME280;21820;51.112;13.762;2023-04-25T03:27:06;98541.34;;;22.54;49.97
35704;BME280;21820;51.112;13.762;2023-04-25T03:29:31;98526.44;;;22.55;50.35
35704;BME280;21820;51.112;13.762;2023-04-25T03:31:56;98531.66;;;22.55;50.26
35704;BME280;21820;51.112;13.762;2023-04-25T03:34:22;98527.09;;;22.49;50.92
35704;BME280;21820;51.112;13.762;2023-04-25T03:36:47;98531.38;;;22.42;50.72
35704;BME280;21820;51.112;13.762;2023-04-25T03:39:12;98529.06;;;22.47;48.57
35704;BME280;21820;51.112;13.762;2023-04-25T03:41:38;98534.34;;;22.77;47.07
35704;BME280;21820;51.112;13.762;2023-04-25T03:44:03;98516.19;;;22.68;47.90
35704;BME280;21820;51.112;13.762;2023-04-25T03:46:29;98524.72;;;22.70;47.46
35704;BME280;21820;51.112;13.762;2023-04-25T03:48:54;98525.38;;;22.72;47.75
35704;BME280;21820;51.112;13.762;2023-04-25T03:51:19;98531.16;;;22.90;48.35
35704;BME280;21820;51.112;13.762;2023-04-25T03:53:45;98525.41;;;23.17;46.95
35704;BME280;21820;51.112;13.762;2023-04-25T03:56:10;98522.97;;;23.53;46.57
35704;BME280;21820;51.112;13.762;2023-04-25T03:58:35;98532.44;;;23.76;46.54
35704;BME280;21820;51.112;13.762;2023-04-25T04:01:01;98521.16;;;24.05;45.63
35704;BME280;21820;51.112;13.762;2023-04-25T04:03:32;98515.56;;;24.22;45.92
35704;BME280;21820;51.112;13.762;2023-04-25T04:05:57;98514.44;;;24.31;45.54
35704;BME280;21820;51.112;13.762;2023-04-25T04:08:23;98521.72;;;24.29;45.95
35704;BME280;21820;51.112;13.762;2023-04-25T04:10:48;98518.06;;;24.30;45.63
35704;BME280;21820;51.112;13.762;2023-04-25T04:13:13;98526.97;;;24.29;46.34
35704;BME280;21820;51.112;13.762;2023-04-25T04:15:39;98516.25;;;24.16;45.87
35704;BME280;21820;51.112;13.762;2023-04-25T04:18:04;98523.69;;;23.98;46.21
35704;BME280;21820;51.112;13.762;2023-04-25T04:20:31;98530.22;;;24.02;45.96
35704;BME280;21820;51.112;13.762;2023-04-25T04:22:56;98534.91;;;24.21;46.39
35704;BME280;21820;51.112;13.762;2023-04-25T04:25:22;98530.09;;;24.69;45.58
35704;BME280;21820;51.112;13.762;2023-04-25T04:27:47;98527.88;;;24.87;44.58
35704;BME280;21820;51.112;13.762;2023-04-25T04:30:12;98530.69;;;25.06;44.14
35704;BME280;21820;51.112;13.762;2023-04-25T04:32:38;98532.75;;;25.11;44.05
35704;BME280;21820;51.112;13.762;2023-04-25T04:35:04;98536.25;;;24.97;44.30
35704;BME280;21820;51.112;13.762;2023-04-25T04:37:29;98516.25;;;24.81;45.14
35704;BME280;21820;51.112;13.762;2023-04-25T04:39:55;98545.00;;;24.83;44.92
35704;BME280;21820;51.112;13.762;2023-04-25T04:42:20;98539.84;;;24.75;45.62
35704;BME280;21820;51.112;13.762;2023-04-25T04:44:46;98544.75;;;24.63;45.86
35704;BME280;21820;51.112;13.762;2023-04-25T04:47:12;98541.28;;;24.63;46.14
35704;BME280;21820;51.112;13.762;2023-04-25T04:49:39;98540.16;;;24.51;46.23
35704;BME280;21820;51.112;13.762;2023-04-25T04:52:05;98548.59;;;24.31;45.28
35704;BME280;21820;51.112;13.762;2023-04-25T04:54:30;98545.25;;;24.08;45.28
35704;BME280;21820;51.112;13.762;2023-04-25T04:56:55;98545.34;;;24.29;45.83
35704;BME280;21820;51.112;13.762;2023-04-25T04:59:21;98548.16;;;24.42;45.47
35704;BME280;21820;51.112;13.762;2023-04-25T05:01:46;98558.03;;;24.40;45.62
35704;BME280;21820;51.112;13.762;2023-04-25T05:04:12;98558.03;;;24.40;45.67
35704;BME280;21820;51.112;13.762;2023-04-25T05:06:37;98560.00;;;24.38;45.99
35704;BME280;21820;51.112;13.762;2023-04-25T05:09:02;98564.16;;;24.33;45.85
35704;BME280;21820;51.112;13.762;2023-04-25T05:11:28;98555.75;;;24.23;46.45
35704;BME280;21820;51.112;13.762;2023-04-25T05:13:54;98559.09;;;24.31;45.99
35704;BME280;21820;51.112;13.762;2023-04-25T05:16:20;98563.38;;;24.32;46.11
35704;BME280;21820;51.112;13.762;2023-04-25T05:18:46;98560.47;;;24.27;46.92
35704;BME280;21820;51.112;13.762;2023-04-25T05:21:12;98566.97;;;24.31;46.70
35704;BME280;21820;51.112;13.762;2023-04-25T05:23:37;98556.47;;;24.02;46.50
35704;BME280;21820;51.112;13.762;2023-04-25T05:26:03;98563.13;;;23.90;46.93
35704;BME280;21820;51.112;13.762;2023-04-25T05:28:28;98571.50;;;24.08;46.82
35704;BME280;21820;51.112;13.762;2023-04-25T05:30:53;98556.84;;;24.28;46.20
35704;BME280;21820;51.112;13.762;2023-04-25T05:33:19;98563.19;;;24.34;46.13
35704;BME280;21820;51.112;13.762;2023-04-25T05:35:45;98559.56;;;24.35;46.49
35704;BME280;21820;51.112;13.762;2023-04-25T05:38:10;98552.50;;;24.35;46.39
35704;BME280;21820;51.112;13.762;2023-04-25T05:40:36;98553.22;;;24.29;46.31
35704;BME280;21820;51.112;13.762;2023-04-25T05:43:01;98551.59;;;24.28;46.92
35704;BME280;21820;51.112;13.762;2023-04-25T05:45:26;98556.84;;;24.28;46.99
35704;BME280;21820;51.112;13.762;2023-04-25T05:47:52;98549.22;;;24.33;46.84
35704;BME280;21820;51.112;13.762;2023-04-25T05:50:17;98558.75;;;24.34;46.54
35704;BME280;21820;51.112;13.762;2023-04-25T05:52:42;98554.69;;;24.17;46.96
35704;BME280;21820;51.112;13.762;2023-04-25T05:55:09;98562.38;;;24.04;46.83
35704;BME280;21820;51.112;13.762;2023-04-25T05:57:34;98550.06;;;24.19;47.17
35704;BME280;21820;51.112;13.762;2023-04-25T06:00:00;98559.75;;;24.33;46.64
35704;BME280;21820;51.112;13.762;2023-04-25T06:02:25;98556.47;;;24.46;46.28
35704;BME280;21820;51.112;13.762;2023-04-25T06:04:51;98557.47;;;24.45;46.24
35704;BME280;21820;51.112;13.762;2023-04-25T06:07:18;98561.09;;;24.44;46.69
35704;BME280;21820;51.112;13.762;2023-04-25T06:09:44;98559.91;;;24.46;46.49
35704;BME280;21820;51.112;13.762;2023-04-25T06:12:09;98565.78;;;24.48;46.46
35704;BME280;21820;51.112;13.762;2023-04-25T06:14:35;98568.44;;;24.48;46.72
35704;BME280;21820;51.112;13.762;2023-04-25T06:17:02;98572.06;;;24.48;46.93
35704;BME280;21820;51.112;13.762;2023-04-25T06:19:35;98560.72;;;24.47;46.48
35704;BME280;21820;51.112;13.762;2023-04-25T06:22:01;98569.72;;;24.53;47.09
35704;BME280;21820;51.112;13.762;2023-04-25T06:24:26;98572.59;;;24.28;46.05
35704;BME280;21820;51.112;13.762;2023-04-25T06:26:52;98574.78;;;24.10;46.76
35704;BME280;21820;51.112;13.762;2023-04-25T06:29:18;98566.28;;;24.37;46.44
35704;BME280;21820;51.112;13.762;2023-04-25T06:31:43;98567.16;;;24.59;46.05
35704;BME280;21820;51.112;13.762;2023-04-25T06:34:08;98570.22;;;24.63;46.58
35704;BME280;21820;51.112;13.762;2023-04-25T06:36:34;98548.84;;;24.51;46.52
35704;BME280;21820;51.112;13.762;2023-04-25T06:38:59;98567.75;;;24.61;45.97
35704;BME280;21820;51.112;13.762;2023-04-25T06:41:24;98573.84;;;24.62;46.75
35704;BME280;21820;51.112;13.762;2023-04-25T06:43:50;98570.34;;;24.69;45.83
35704;BME280;21820;51.112;13.762;2023-04-25T06:46:15;98562.31;;;24.63;46.11
35704;BME280;21820;51.112;13.762;2023-04-25T06:48:41;98565.09;;;24.69;46.34
35704;BME280;21820;51.112;13.762;2023-04-25T06:51:06;98559.16;;;24.67;46.05
35704;BME280;21820;51.112;13.762;2023-04-25T06:53:34;98562.09;;;24.58;46.44
35704;BME280;21820;51.112;13.762;2023-04-25T06:56:00;98571.78;;;24.28;46.81
35704;BME280;21820;51.112;13.762;2023-04-25T06:58:25;98567.88;;;24.38;47.03
35704;BME280;21820;51.112;13.762;2023-04-25T07:00:51;98569.69;;;24.67;46.30
35704;BME280;21820;51.112;13.762;2023-04-25T07:03:16;98565.88;;;24.70;46.12
35704;BME280;21820;51.112;13.762;2023-04-25T07:05:42;98572.78;;;24.71;45.88
35704;BME280;21820;51.112;13.762;2023-04-25T07:08:07;98567.22;;;24.80;46.02
35704;BME280;21820;51.112;13.762;2023-04-25T07:10:32;98573.13;;;24.82;45.84
35704;BME280;21820;51.112;13.762;2023-04-25T07:12:58;98578.56;;;24.81;45.67
35704;BME280;21820;51.112;13.762;2023-04-25T07:15:23;98577.38;;;24.83;46.10
35704;BME280;21820;51.112;13.762;2023-04-25T07:17:48;98571.03;;;24.78;46.62
35704;BME280;21820;51.112;13.762;2023-04-25T07:20:14;98581.47;;;24.86;46.38
35704;BME280;21820;51.112;13.762;2023-04-25T07:22:39;98571.22;;;24.76;46.72
35704;BME280;21820;51.112;13.762;2023-04-25T07:25:05;98582.75;;;24.61;46.00
35704;BME280;21820;51.112;13.762;2023-04-25T07:27:31;98587.00;;;24.47;46.75
35704;BME280;21820;51.112;13.762;2023-04-25T07:29:56;98565.25;;;24.53;47.09
35704;BME280;21820;51.112;13.762;2023-04-25T07:32:22;98578.91;;;24.78;46.30
35704;BME280;21820;51.112;13.762;2023-04-25T07:34:48;98576.19;;;24.86;46.22
35704;BME280;21820;51.112;13.762;2023-04-25T07:37:14;98587.59;;;24.93;46.02
35704;BME280;21820;51.112;13.762;2023-04-25T07:39:39;98588.84;;;24.97;46.04
35704;BME280;21820;51.112;13.762;2023-04-25T07:42:05;98566.03;;;24.83;46.35
35704;BME280;21820;51.112;13.762;2023-04-25T07:44:35;98576.28;;;24.92;46.41
35704;BME280;21820;51.112;13.762;2023-04-25T07:47:05;98581.16;;;24.95;46.07
35704;BME280;21820;51.112;13.762;2023-04-25T07:49:32;98581.16;;;24.95;45.93
35704;BME280;21820;51.112;13.762;2023-04-25T07:51:58;98584.44;;;24.97;45.84
35704;BME280;21820;51.112;13.762;2023-04-25T07:54:23;98584.97;;;24.93;45.66
35704;BME280;21820;51.112;13.762;2023-04-25T07:56:48;98590.19;;;24.72;46.16
35704;BME280;21820;51.112;13.762;2023-04-25T07:59:14;98581.09;;;24.60;46.05
35704;BME280;21820;51.112;13.762;2023-04-25T08:01:39;98583.97;;;24.94;46.34
35704;BME280;21820;51.112;13.762;2023-04-25T08:04:05;98594.13;;;24.97;45.69
35704;BME280;21820;51.112;13.762;2023-04-25T08:06:30;98589.00;;;25.10;45.89
35704;BME280;21820;51.112;13.762;2023-04-25T08:08:56;98594.00;;;25.05;45.82
35704;BME280;21820;51.112;13.762;2023-04-25T08:11:21;98592.63;;;25.09;45.53
35704;BME280;21820;51.112;13.762;2023-04-25T08:13:47;98600.41;;;25.17;45.44
35704;BME280;21820;51.112;13.762;2023-04-25T08:16:12;98600.69;;;25.07;45.72
35704;BME280;21820;51.112;13.762;2023-04-25T08:18:37;98599.91;;;25.07;45.98
35704;BME280;21820;51.112;13.762;2023-04-25T08:21:03;98607.59;;;25.08;46.18
35704;BME280;21820;51.112;13.762;2023-04-25T08:23:28;98604.78;;;25.10;45.93
35704;BME280;21820;51.112;13.762;2023-04-25T08:25:54;98604.19;;;24.93;45.89
35704;BME280;21820;51.112;13.762;2023-04-25T08:28:19;98604.22;;;24.79;45.88
35704;BME280;21820;51.112;13.762;2023-04-25T08:30:44;98608.63;;;24.93;46.25
35704;BME280;21820;51.112;13.762;2023-04-25T08:33:10;98623.81;;;25.12;46.35
35704;BME280;21820;51.112;13.762;2023-04-25T08:35:36;98615.81;;;25.20;45.80
35704;BME280;21820;51.112;13.762;2023-04-25T08:38:01;98620.25;;;25.19;45.48
35704;BME280;21820;51.112;13.762;2023-04-25T08:40:27;98604.78;;;25.10;45.66
35704;BME280;21820;51.112;13.762;2023-04-25T08:42:56;98620.69;;;25.23;45.43
35704;BME280;21820;51.112;13.762;2023-04-25T08:45:22;98621.53;;;25.23;45.60
35704;BME280;21820;51.112;13.762;2023-04-25T08:47:48;98613.00;;;25.21;46.18
35704;BME280;21820;51.112;13.762;2023-04-25T08:50:16;98625.78;;;25.24;45.89
35704;BME280;21820;51.112;13.762;2023-04-25T08:52:46;98625.50;;;25.19;45.74
35704;BME280;21820;51.112;13.762;2023-04-25T08:55:13;98631.97;;;25.17;46.70
35704;BME280;21820;51.112;13.762;2023-04-25T08:57:40;98620.91;;;24.86;46.55
35704;BME280;21820;51.112;13.762;2023-04-25T09:00:09;98631.31;;;24.94;46.43
35704;BME280;21820;51.112;13.762;2023-04-25T09:02:35;98633.59;;;25.18;45.58
35704;BME280;21820;51.112;13.762;2023-04-25T09:05:02;98633.28;;;25.27;46.08
35704;BME280;21820;51.112;13.762;2023-04-25T09:07:29;98632.59;;;25.19;45.59
35704;BME280;21820;51.112;13.762;2023-04-25T09:09:55;98644.91;;;25.33;46.14
35704;BME280;21820;51.112;13.762;2023-04-25T09:12:20;98653.53;;;25.27;45.94
35704;BME280;21820;51.112;13.762;2023-04-25T09:15:05;98643.09;;;25.33;45.93
35704;BME280;21820;51.112;13.762;2023-04-25T09:17:31;98650.81;;;25.35;45.87
35704;BME280;21820;51.112;13.762;2023-04-25T09:20:14;98655.31;;;25.41;45.79
35704;BME280;21820;51.112;13.762;2023-04-25T09:22:40;98653.25;;;25.36;45.57
35704;BME280;21820;51.112;13.762;2023-04-25T09:25:10;98656.19;;;25.27;46.27
35704;BME280;21820;51.112;13.762;2023-04-25T09:27:36;98664.09;;;24.98;45.92
35704;BME280;21820;51.112;13.762;2023-04-25T09:30:16;98674.78;;;25.11;46.41
35704;BME280;21820;51.112;13.762;2023-04-25T09:32:43;98670.19;;;25.34;45.41
35704;BME280;21820;51.112;13.762;2023-04-25T09:35:08;98678.38;;;25.39;45.22
35704;BME280;21820;51.112;13.762;2023-04-25T09:37:34;98674.38;;;25.43;45.89
35704;BME280;21820;51.112;13.762;2023-04-25T09:40:05;98676.25;;;25.49;45.62
35704;BME280;21820;51.112;13.762;2023-04-25T09:42:31;98686.25;;;25.53;45.93
35704;BME280;21820;51.112;13.762;2023-04-25T09:44:57;98682.72;;;25.46;45.91
35704;BME280;21820;51.112;13.762;2023-04-25T09:47:24;98686.97;;;25.47;45.78
35704;BME280;21820;51.112;13.762;2023-04-25T09:49:51;98681.38;;;25.36;46.07
35704;BME280;21820;51.112;13.762;2023-04-25T09:52:21;98677.47;;;25.32;45.94
35704;BME280;21820;51.112;13.762;2023-04-25T09:54:48;98682.03;;;25.38;45.94
35704;BME280;21820;51.112;13.762;2023-04-25T09:57:20;98686.06;;;25.05;45.51
35704;BME280;21820;51.112;13.762;2023-04-25T09:59:50;98684.50;;;24.96;46.48
35704;BME280;21820;51.112;13.762;2023-04-25T10:02:18;98676.44;;;25.12;46.39
35704;BME280;21820;51.112;13.762;2023-04-25T10:04:48;98697.19;;;25.36;45.69
35704;BME280;21820;51.112;13.762;2023-04-25T10:07:14;98680.72;;;25.34;46.44
35704;BME280;21820;51.112;13.762;2023-04-25T10:09:39;98689.72;;;25.39;45.75
35704;BME280;21820;51.112;13.762;2023-04-25T10:12:06;98694.63;;;25.42;45.81
35704;BME280;21820;51.112;13.762;2023-04-25T10:14:32;98698.53;;;25.46;45.80
35704;BME280;21820;51.112;13.762;2023-04-25T10:16:58;98696.69;;;25.47;45.82
35704;BME280;21820;51.112;13.762;2023-04-25T10:19:25;98701.94;;;25.47;45.60
35704;BME280;21820;51.112;13.762;2023-04-25T10:24:36;98712.13;;;25.50;45.74
35704;BME280;21820;51.112;13.762;2023-04-25T10:27:02;98707.34;;;25.24;45.58
35704;BME280;21820;51.112;13.762;2023-04-25T10:29:28;98717.78;;;25.18;45.56
35704;BME280;21820;51.112;13.762;2023-04-25T10:31:54;98712.28;;;25.34;45.92
35704;BME280;21820;51.112;13.762;2023-04-25T10:34:24;98713.75;;;25.51;45.41
35704;BME280;21820;51.112;13.762;2023-04-25T10:36:52;98706.09;;;25.56;45.76
35704;BME280;21820;51.112;13.762;2023-04-25T10:39:25;98714.91;;;25.63;45.85
35704;BME280;21820;51.112;13.762;2023-04-25T10:41:56;98706.63;;;25.66;45.51
35704;BME280;21820;51.112;13.762;2023-04-25T10:44:22;98711.63;;;25.61;45.35
35704;BME280;21820;51.112;13.762;2023-04-25T10:46:48;98720.16;;;25.63;45.42
35704;BME280;21820;51.112;13.762;2023-04-25T10:49:36;98713.88;;;25.64;45.23
35704;BME280;21820;51.112;13.762;2023-04-25T10:52:11;98721.97;;;25.62;45.19
35704;BME280;21820;51.112;13.762;2023-04-25T10:54:47;98722.41;;;25.66;45.38
35704;BME280;21820;51.112;13.762;2023-04-25T10:57:46;98721.19;;;25.33;45.57
35704;BME280;21820;51.112;13.762;2023-04-25T11:00:15;98712.41;;;25.40;45.76
35704;BME280;21820;51.112;13.762;2023-04-25T11:05:17;98739.09;;;25.73;45.56
35704;BME280;21820;51.112;13.762;2023-04-25T11:07:54;98737.44;;;25.72;45.39
35704;BME280;21820;51.112;13.762;2023-04-25T11:10:32;98736.53;;;25.80;45.40
35704;BME280;21820;51.112;13.762;2023-04-25T11:12:58;98739.97;;;25.80;45.01
35704;BME280;21820;51.112;13.762;2023-04-25T11:15:25;98739.97;;;25.80;45.35
35704;BME280;21820;51.112;13.762;2023-04-25T11:17:51;98751.13;;;25.82;45.67
35704;BME280;21820;51.112;13.762;2023-04-25T11:20:17;98762.69;;;25.81;45.43
35704;BME280;21820;51.112;13.762;2023-04-25T11:22:45;98757.03;;;25.84;44.75
35704;BME280;21820;51.112;13.762;2023-04-25T11:25:12;98753.63;;;25.69;45.83
35704;BME280;21820;51.112;13.762;2023-04-25T11:27:58;98759.44;;;25.43;46.39
35704;BME280;21820;51.112;13.762;2023-04-25T11:30:24;98768.00;;;25.52;46.00
35704;BME280;21820;51.112;13.762;2023-04-25T11:32:50;98775.25;;;25.64;45.85
35704;BME280;21820;51.112;13.762;2023-04-25T11:35:18;98765.97;;;25.68;45.42
35704;BME280;21820;51.112;13.762;2023-04-25T11:37:43;98773.44;;;25.65;45.66
35704;BME280;21820;51.112;13.762;2023-04-25T11:40:10;98773.44;;;25.65;45.71
35704;BME280;21820;51.112;13.762;2023-04-25T11:42:43;98779.97;;;25.69;45.38
35704;BME280;21820;51.112;13.762;2023-04-25T11:45:08;98776.69;;;25.67;45.35
35704;BME280;21820;51.112;13.762;2023-04-25T11:47:34;98776.69;;;25.67;45.67
35704;BME280;21820;51.112;13.762;2023-04-25T11:50:01;98776.34;;;25.70;45.75
35704;BME280;21820;51.112;13.762;2023-04-25T11:52:38;98779.50;;;25.65;46.13
35704;BME280;21820;51.112;13.762;2023-04-25T11:55:06;98773.88;;;25.68;45.83
35704;BME280;21820;51.112;13.762;2023-04-25T11:57:32;98783.63;;;25.39;45.74
35704;BME280;21820;51.112;13.762;2023-04-25T12:00:15;98784.34;;;25.33;45.97
35704;BME280;21820;51.112;13.762;2023-04-25T12:02:52;98782.97;;;25.66;45.69
35704;BME280;21820;51.112;13.762;2023-04-25T12:05:17;98785.66;;;25.73;45.73
35704;BME280;21820;51.112;13.762;2023-04-25T12:07:43;98778.84;;;25.78;45.77
35704;BME280;21820;51.112;13.762;2023-04-25T12:10:13;98781.75;;;25.83;45.13
35704;BME280;21820;51.112;13.762;2023-04-25T12:12:44;98767.31;;;25.79;45.51
35704;BME280;21820;51.112;13.762;2023-04-25T12:15:10;98786.63;;;25.86;45.44
35704;BME280;21820;51.112;13.762;2023-04-25T12:17:36;98781.75;;;25.83;45.11
35704;BME280;21820;51.112;13.762;2023-04-25T12:20:07;98789.53;;;25.91;45.19
35704;BME280;21820;51.112;13.762;2023-04-25T12:22:32;98790.16;;;25.93;45.62
35704;BME280;21820;51.112;13.762;2023-04-25T12:24:58;98779.38;;;25.73;45.80
35704;BME280;21820;51.112;13.762;2023-04-25T12:27:25;98782.44;;;25.56;45.41
35704;BME280;21820;51.112;13.762;2023-04-25T12:29:55;98783.31;;;25.42;45.29
35704;BME280;21820;51.112;13.762;2023-04-25T12:32:21;98788.75;;;25.76;45.98
35704;BME280;21820;51.112;13.762;2023-04-25T12:34:46;98798.53;;;25.82;45.81
35704;BME280;21820;51.112;13.762;2023-04-25T12:37:12;98788.78;;;25.97;45.18
35704;BME280;21820;51.112;13.762;2023-04-25T12:39:38;98780.69;;;25.99;45.15
35704;BME280;21820;51.112;13.762;2023-04-25T12:42:03;98782.78;;;26.03;44.71
35704;BME280;21820;51.112;13.762;2023-04-25T12:44:29;98781.50;;;25.99;45.08
35704;BME280;21820;51.112;13.762;2023-04-25T12:46:54;98784.44;;;26.04;45.10
35704;BME280;21820;51.112;13.762;2023-04-25T12:49:20;98774.91;;;25.89;45.23
35704;BME280;21820;51.112;13.762;2023-04-25T12:51:45;98786.03;;;26.05;45.27